createdAt,value
2023-01-20T00:01:05.587Z,90716.13
2023-01-20T00:03:32.317Z,90699.63
2023-01-20T00:06:00.121Z,90689.91
2023-01-20T00:08:26.820Z,90689.53
2023-01-20T00:10:53.734Z,90686.19
2023-01-20T00:13:20.442Z,90691.41
2023-01-20T00:15:48.504Z,90671.19
2023-01-20T00:18:15.698Z,90687.28
2023-01-20T00:20:42.804Z,90683.88
2023-01-20T00:23:10.321Z,90677.53
2023-01-20T00:25:37.116Z,90681.28
2023-01-20T00:28:04.341Z,90670.47
2023-01-20T00:30:31.797Z,90693.28
2023-01-20T00:32:58.885Z,90674.94
2023-01-20T00:35:25.589Z,90665.22
2023-01-20T00:37:52.557Z,90658.47
2023-01-20T00:40:19.268Z,90669.31
2023-01-20T00:42:45.925Z,90665.94
2023-01-20T00:45:12.975Z,90664.84
2023-01-20T00:47:39.816Z,90658.06
2023-01-20T00:50:06.745Z,90667.47
2023-01-20T00:52:33.644Z,90664.84
2023-01-20T00:55:00.280Z,90654.75
2023-01-20T00:57:27.033Z,90660.34
2023-01-20T00:59:55.776Z,90643.50
2023-01-20T01:02:22.567Z,90624.03
2023-01-20T01:04:50.944Z,90636.03
2023-01-20T01:07:18.219Z,90625.19
2023-01-20T01:09:45.070Z,90637.53
2023-01-20T01:12:11.786Z,90610.56
2023-01-20T01:14:38.473Z,90625.16
2023-01-20T01:17:05.250Z,90624.03
2023-01-20T01:19:31.882Z,90606.06
2023-01-20T01:21:58.592Z,90573.56
2023-01-20T01:24:25.252Z,90601.97
2023-01-20T01:26:53.426Z,90600.47
2023-01-20T01:29:20.557Z,90606.84
2023-01-20T01:31:47.257Z,90601.22
2023-01-20T01:34:14.147Z,90627.78
2023-01-20T01:36:40.920Z,90600.81
2023-01-20T01:39:07.695Z,90601.59
2023-01-20T01:41:34.442Z,90596.34
2023-01-20T01:44:10.077Z,90590.34
2023-01-20T01:46:37.182Z,90595.56
2023-01-20T01:49:17.038Z,90580.59
2023-01-20T01:51:54.510Z,90571.63
2023-01-20T01:54:25.270Z,90588.09
2023-01-20T01:56:52.899Z,90586.22
2023-01-20T01:59:21.291Z,90566.00
2023-01-20T02:01:53.456Z,90556.28
2023-01-20T02:04:23.528Z,90551.06
2023-01-20T02:06:54.798Z,90570.91
2023-01-20T02:09:22.402Z,90569.38
2023-01-20T02:11:53.157Z,90559.66
2023-01-20T02:14:24.526Z,90549.16
2023-01-20T02:16:57.336Z,90557.03
2023-01-20T02:20:15.850Z,90555.19
2023-01-20T02:23:08.619Z,90570.91
2023-01-20T02:25:56.642Z,90558.53
2023-01-20T02:28:50.955Z,90541.72
2023-01-20T02:31:55.159Z,90546.22
2023-01-20T02:34:42.010Z,90548.44
2023-01-20T02:37:16.944Z,90540.97
2023-01-20T02:39:43.579Z,90545.44
2023-01-20T02:42:16.511Z,90544.72
2023-01-20T02:45:09.847Z,90549.97
2023-01-20T02:47:55.804Z,90546.22
2023-01-20T02:51:01.561Z,90541.34
2023-01-20T02:53:35.198Z,90532.38
2023-01-20T02:56:02.602Z,90525.31
2023-01-20T02:58:42.428Z,90521.19
2023-01-20T03:01:18.629Z,90519.28
2023-01-20T03:03:49.862Z,90536.94
2023-01-20T03:06:25.360Z,90527.22
2023-01-20T03:08:56.304Z,90516.75
2023-01-20T03:11:23.157Z,90532.47
2023-01-20T03:13:57.255Z,90524.63
2023-01-20T03:16:26.633Z,90533.19
2023-01-20T03:18:55.472Z,90539.53
2023-01-20T03:21:22.885Z,90522.69
2023-01-20T03:23:53.315Z,90532.06
2023-01-20T03:26:23.157Z,90532.78
2023-01-20T03:28:50.355Z,90515.19
2023-01-20T03:31:29.515Z,90517.84
2023-01-20T03:34:00.086Z,90514.09
2023-01-20T03:36:30.040Z,90488.31
2023-01-20T03:38:58.543Z,90492.78
2023-01-20T03:41:25.189Z,90497.66
2023-01-20T03:44:11.548Z,90503.28
2023-01-20T03:47:22.853Z,90505.88
2023-01-20T03:49:52.166Z,90504.00
2023-01-20T03:52:46.471Z,90513.38
2023-01-20T03:55:18.312Z,90496.13
2023-01-20T03:58:03.972Z,90499.06
2023-01-20T04:00:36.271Z,90509.53
2023-01-20T04:03:07.737Z,90494.97
2023-01-20T04:05:36.029Z,90491.22
2023-01-20T04:08:08.840Z,90503.19
2023-01-20T04:10:39.655Z,90482.59
2023-01-20T04:13:06.353Z,90492.38
2023-01-20T04:15:37.354Z,90487.84
2023-01-20T04:18:21.580Z,90481.13
2023-01-20T04:21:00.809Z,90470.66
2023-01-20T04:23:30.803Z,90470.66
2023-01-20T04:25:57.506Z,90481.13
2023-01-20T04:28:24.261Z,90476.66
2023-01-20T04:30:51.102Z,90484.16
2023-01-20T04:33:18.342Z,90477.06
2023-01-20T04:35:44.999Z,90471.13
2023-01-20T04:38:11.674Z,90469.66
2023-01-20T04:40:38.416Z,90462.88
2023-01-20T04:43:05.038Z,90456.56
2023-01-20T04:45:31.806Z,90450.56
2023-01-20T04:47:58.875Z,90446.84
2023-01-20T04:50:25.560Z,90452.06
2023-01-20T04:53:02.293Z,90444.22
2023-01-20T04:55:29.067Z,90446.13
2023-01-20T04:57:55.768Z,90444.63
2023-01-20T05:00:22.475Z,90437.91
2023-01-20T05:02:49.280Z,90445.72
2023-01-20T05:05:16.574Z,90444.59
2023-01-20T05:07:43.501Z,90447.59
2023-01-20T05:10:13.041Z,90423.69
2023-01-20T05:12:41.269Z,90431.13
2023-01-20T05:15:08.519Z,90428.16
2023-01-20T05:17:35.262Z,90424.47
2023-01-20T05:20:02.187Z,90427.47
2023-01-20T05:22:29.755Z,90417.00
2023-01-20T05:24:56.370Z,90419.25
2023-01-20T05:27:23.008Z,90423.72
2023-01-20T05:29:49.678Z,90392.34
2023-01-20T05:32:17.139Z,90402.44
2023-01-20T05:34:44.166Z,90415.50
2023-01-20T05:37:10.868Z,90416.25
2023-01-20T05:39:37.578Z,90402.81
2023-01-20T05:42:04.449Z,90404.31
2023-01-20T05:44:31.342Z,90408.03
2023-01-20T05:46:57.995Z,90399.09
2023-01-20T05:49:24.634Z,90402.81
2023-01-20T05:51:51.361Z,90403.94
2023-01-20T05:54:18.929Z,90393.09
2023-01-20T05:56:48.218Z,90400.56
2023-01-20T05:59:15.278Z,90408.03
2023-01-20T06:01:42.008Z,90403.94
2023-01-20T06:04:08.971Z,90404.69
2023-01-20T06:06:35.746Z,90383.03
2023-01-20T06:09:02.453Z,90381.16
2023-01-20T06:11:29.113Z,90391.25
2023-01-20T06:13:55.849Z,90392.34
2023-01-20T06:16:22.653Z,90391.25
2023-01-20T06:18:49.389Z,90384.88
2023-01-20T06:21:16.183Z,90397.94
2023-01-20T06:23:42.921Z,90389.38
2023-01-20T06:26:12.683Z,90380.38
2023-01-20T06:28:39.974Z,90370.69
2023-01-20T06:31:13.557Z,90377.41
2023-01-20T06:33:40.565Z,90359.88
2023-01-20T06:36:08.910Z,90365.47
2023-01-20T06:38:36.032Z,90366.22
2023-01-20T06:41:05.668Z,90359.50
2023-01-20T06:43:34.377Z,90349.06
2023-01-20T06:46:02.465Z,90350.91
2023-01-20T06:48:29.668Z,90321.44
2023-01-20T06:51:07.128Z,90341.16
2023-01-20T06:53:34.202Z,90342.28
2023-01-20T06:56:01.825Z,90347.50
2023-01-20T06:58:31.100Z,90343.72
2023-01-20T07:01:03.744Z,90341.53
2023-01-20T07:03:30.747Z,90336.28
2023-01-20T07:06:02.445Z,90317.59
2023-01-20T07:08:29.982Z,90318.41
2023-01-20T07:10:57.214Z,90308.72
2023-01-20T07:13:23.911Z,90296.41
2023-01-20T07:15:50.883Z,90293.41
2023-01-20T07:18:17.494Z,90296.75
2023-01-20T07:20:44.210Z,90312.72
2023-01-20T07:23:10.997Z,90307.88
2023-01-20T07:25:38.723Z,90311.56
2023-01-20T07:28:06.265Z,90358.13
2023-01-20T07:30:32.974Z,90389.66
2023-01-20T07:32:59.752Z,90452.66
2023-01-20T07:35:26.413Z,90425.00
2023-01-20T07:37:53.155Z,90421.78
2023-01-20T07:40:19.800Z,90433.34
2023-01-20T07:42:46.499Z,90444.28
2023-01-20T07:45:13.581Z,90435.16
2023-01-20T07:47:40.535Z,90455.75
2023-01-20T07:50:07.922Z,90452.06
2023-01-20T07:52:34.996Z,90473.19
2023-01-20T07:55:01.678Z,90478.38
2023-01-20T07:57:30.344Z,90474.25
2023-01-20T07:59:57.072Z,90480.47
2023-01-20T08:02:23.899Z,90471.03
2023-01-20T08:04:50.603Z,90463.88
2023-01-20T08:07:17.306Z,90489.28
2023-01-20T08:09:44.115Z,90494.69
2023-01-20T08:12:10.756Z,90509.28
2023-01-20T08:14:37.944Z,90508.31
2023-01-20T08:17:04.669Z,90509.03
2023-01-20T08:19:31.350Z,90501.38
2023-01-20T08:21:58.119Z,90514.72
2023-01-20T08:24:24.748Z,90506.38
2023-01-20T08:26:51.620Z,90506.91
2023-01-20T08:29:18.390Z,90484.94
2023-01-20T08:31:45.413Z,90476.28
2023-01-20T08:34:12.501Z,90467.75
2023-01-20T08:36:41.720Z,90463.50
2023-01-20T08:39:10.686Z,90453.25
2023-01-20T08:41:39.532Z,90454.72
2023-01-20T08:44:08.278Z,90454.97
2023-01-20T08:46:40.449Z,90439.78
2023-01-20T08:49:13.479Z,90449.72
2023-01-20T08:51:41.491Z,90451.56
2023-01-20T08:54:08.565Z,90447.13
2023-01-20T08:56:36.836Z,90439.91
2023-01-20T08:59:04.988Z,90450.81
2023-01-20T09:01:35.997Z,90419.41
2023-01-20T09:04:06.162Z,90450.00
2023-01-20T09:06:49.727Z,90453.94
2023-01-20T09:09:18.387Z,90445.34
2023-01-20T09:11:50.756Z,90435.78
2023-01-20T09:14:19.506Z,90429.78
2023-01-20T09:16:46.603Z,90420.09
2023-01-20T09:19:13.300Z,90406.44
2023-01-20T09:21:46.728Z,90398.31
2023-01-20T09:24:13.614Z,90406.19
2023-01-20T09:26:40.280Z,90391.19
2023-01-20T09:29:13.077Z,90397.16
2023-01-20T09:31:45.783Z,90401.72
2023-01-20T09:34:19.280Z,90391.25
2023-01-20T09:36:46.403Z,90395.75
2023-01-20T09:39:35.646Z,90393.06
2023-01-20T09:42:35.420Z,90386.03
2023-01-20T09:45:30.269Z,90372.53
2023-01-20T09:48:54.605Z,90375.25
2023-01-20T09:51:50.879Z,90355.34
2023-01-20T09:54:25.598Z,90368.38
2023-01-20T09:56:56.479Z,90352.09
2023-01-20T09:59:32.439Z,90345.16
2023-01-20T10:02:02.440Z,90342.91
2023-01-20T10:04:41.816Z,90332.41
2023-01-20T10:07:08.483Z,90325.66
2023-01-20T10:09:44.231Z,90316.47
2023-01-20T10:12:55.459Z,90317.97
2023-01-20T10:15:29.950Z,90297.47
2023-01-20T10:18:09.502Z,90306.41
2023-01-20T10:20:47.160Z,90304.53
2023-01-20T10:23:43.016Z,90292.53
2023-01-20T10:26:11.561Z,90255.34
2023-01-20T10:28:43.517Z,90286.84
2023-01-20T10:31:14.523Z,90287.72
2023-01-20T10:33:45.455Z,90265.06
2023-01-20T10:36:34.963Z,90256.78
2023-01-20T10:39:13.382Z,90241.25
2023-01-20T10:41:45.678Z,90232.00
2023-01-20T10:44:14.423Z,90226.28
2023-01-20T10:47:08.498Z,90214.56
2023-01-20T10:49:56.966Z,90218.91
2023-01-20T10:52:23.677Z,90216.75
2023-01-20T10:55:06.889Z,90198.16
2023-01-20T10:57:35.121Z,90182.69
2023-01-20T11:00:08.238Z,90192.25
2023-01-20T11:02:38.265Z,90189.00
2023-01-20T11:05:25.960Z,90199.78
2023-01-20T11:07:54.227Z,90197.72
2023-01-20T11:10:25.055Z,90197.22
2023-01-20T11:12:55.493Z,90187.72
2023-01-20T11:15:29.877Z,90173.56
2023-01-20T11:18:14.872Z,90155.06
2023-01-20T11:20:53.863Z,90147.28
2023-01-20T11:23:24.142Z,90133.59
2023-01-20T11:25:59.067Z,90138.13
2023-01-20T11:28:26.191Z,90132.34
2023-01-20T11:30:55.656Z,90144.00
2023-01-20T11:33:28.284Z,90149.44
2023-01-20T11:35:59.411Z,90156.97
2023-01-20T11:38:29.451Z,90148.09
2023-01-20T11:40:57.658Z,90147.06
2023-01-20T11:43:38.014Z,90155.44
2023-01-20T11:46:26.641Z,90159.94
2023-01-20T11:49:17.615Z,90159.72
2023-01-20T11:51:46.987Z,90151.75
2023-01-20T11:54:17.625Z,90157.38
2023-01-20T11:56:47.450Z,90156.72
2023-01-20T11:59:21.486Z,90137.03
2023-01-20T12:01:57.834Z,90137.75
2023-01-20T12:04:44.797Z,90131.03
2023-01-20T12:07:22.948Z,90127.47
2023-01-20T12:09:59.353Z,90105.13
2023-01-20T12:12:48.328Z,90114.56
2023-01-20T12:15:37.795Z,90113.31
2023-01-20T12:18:32.548Z,90105.09
2023-01-20T12:21:08.048Z,90105.19
2023-01-20T12:23:47.525Z,90111.69
2023-01-20T12:26:17.168Z,90105.38
2023-01-20T12:29:15.984Z,90098.34
2023-01-20T12:31:44.331Z,90096.69
2023-01-20T12:34:17.155Z,90098.53
2023-01-20T12:37:20.023Z,90102.56
2023-01-20T12:40:05.114Z,90116.34
2023-01-20T12:42:56.154Z,90110.03
2023-01-20T12:45:33.804Z,90111.16
2023-01-20T12:48:33.333Z,90113.25
2023-01-20T12:51:30.887Z,90134.75
2023-01-20T12:54:19.569Z,90138.53
2023-01-20T12:57:09.882Z,90122.00
2023-01-20T12:59:48.337Z,90136.56
2023-01-20T13:02:38.103Z,90118.78
2023-01-20T13:05:20.870Z,90105.44
2023-01-20T13:08:16.772Z,90106.97
2023-01-20T13:11:08.405Z,90114.41
2023-01-20T13:13:57.276Z,90119.72
2023-01-20T13:16:31.909Z,90109.84
2023-01-20T13:19:15.555Z,90119.88
2023-01-20T13:21:42.748Z,90125.13
2023-01-20T13:24:19.160Z,90130.69
2023-01-20T13:26:49.646Z,90145.84
2023-01-20T13:29:34.719Z,90140.38
2023-01-20T13:32:01.918Z,90138.31
2023-01-20T13:34:32.649Z,90147.75
2023-01-20T13:37:02.459Z,90165.13
2023-01-20T13:39:39.836Z,90159.94
2023-01-20T13:42:28.285Z,90158.38
2023-01-20T13:45:14.308Z,90191.19
2023-01-20T13:47:59.613Z,90144.56
2023-01-20T13:50:28.277Z,90167.81
2023-01-20T13:53:03.192Z,90184.16
2023-01-20T13:55:44.126Z,90169.56
2023-01-20T13:58:28.208Z,90161.06
2023-01-20T14:00:57.773Z,90160.44
2023-01-20T14:03:28.011Z,90165.75
2023-01-20T14:05:57.598Z,90167.75
2023-01-20T14:08:26.840Z,90169.56
2023-01-20T14:11:12.732Z,90170.38
2023-01-20T14:13:40.075Z,90174.78
2023-01-20T14:16:28.241Z,90173.69
2023-01-20T14:18:58.794Z,90168.13
2023-01-20T14:21:31.041Z,90171.66
2023-01-20T14:23:58.304Z,90176.78
2023-01-20T14:26:28.329Z,90184.84
2023-01-20T14:28:57.584Z,90178.03
2023-01-20T14:31:45.850Z,90186.00
2023-01-20T14:34:21.927Z,90179.72
2023-01-20T14:36:49.107Z,90183.88
2023-01-20T14:39:21.918Z,90183.47
2023-01-20T14:41:53.075Z,90179.69
2023-01-20T14:44:21.534Z,90176.16
2023-01-20T14:46:50.108Z,90161.31
2023-01-20T14:49:19.204Z,90165.59
2023-01-20T14:51:47.469Z,90165.22
2023-01-20T14:54:32.957Z,90161.47
2023-01-20T14:57:12.522Z,90179.31
2023-01-20T14:59:39.599Z,90172.78
2023-01-20T15:02:16.771Z,90169.25
2023-01-20T15:04:43.964Z,90176.47
2023-01-20T15:07:19.426Z,90175.13
2023-01-20T15:10:04.861Z,90178.28
2023-01-20T15:12:33.058Z,90180.97
2023-01-20T15:15:22.748Z,90192.63
2023-01-20T15:18:11.559Z,90196.59
2023-01-20T15:20:44.246Z,90191.81
2023-01-20T15:23:41.445Z,90205.22
2023-01-20T15:26:30.077Z,90208.13
2023-01-20T15:28:58.740Z,90208.72
2023-01-20T15:31:26.448Z,90217.38
2023-01-20T15:33:54.388Z,90227.78
2023-01-20T15:36:24.530Z,90231.16
2023-01-20T15:38:51.219Z,90256.63
2023-01-20T15:41:18.821Z,90252.75
2023-01-20T15:43:46.177Z,90263.00
2023-01-20T15:46:14.914Z,90268.56
2023-01-20T15:48:42.048Z,90291.53
2023-01-20T15:51:14.173Z,90283.38
2023-01-20T15:53:41.518Z,90286.56
2023-01-20T15:56:29.909Z,90300.13
2023-01-20T15:58:58.049Z,90341.97
2023-01-20T16:01:26.680Z,90324.00
2023-01-20T16:03:55.316Z,90328.94
2023-01-20T16:06:29.714Z,90327.78
2023-01-20T16:08:57.034Z,90346.41
2023-01-20T16:11:23.797Z,90361.63
2023-01-20T16:13:50.530Z,90361.75
2023-01-20T16:16:19.722Z,90351.47
2023-01-20T16:18:47.434Z,90357.56
2023-01-20T16:21:16.806Z,90370.34
2023-01-20T16:23:44.014Z,90367.97
2023-01-20T16:26:29.599Z,90370.16
2023-01-20T16:28:57.879Z,90381.13
2023-01-20T16:31:26.554Z,90391.81
2023-01-20T16:33:54.469Z,90397.72
2023-01-20T16:36:23.550Z,90402.66
2023-01-20T16:38:51.315Z,90409.16
2023-01-20T16:41:25.295Z,90423.75
2023-01-20T16:43:53.638Z,90426.38
2023-01-20T16:46:22.883Z,90436.22
2023-01-20T16:48:50.247Z,90425.44
2023-01-20T16:51:22.182Z,90420.47
2023-01-20T16:53:49.332Z,90414.81
2023-01-20T16:56:18.197Z,90434.22
2023-01-20T16:58:47.760Z,90431.44
2023-01-20T17:01:14.542Z,90427.06
2023-01-20T17:03:42.352Z,90418.94
2023-01-20T17:06:17.316Z,90431.56
2023-01-20T17:08:49.903Z,90429.44
2023-01-20T17:11:20.819Z,90448.53
2023-01-20T17:13:47.675Z,90459.13
2023-01-20T17:16:15.255Z,90454.47
2023-01-20T17:18:45.234Z,90477.97
2023-01-20T17:21:13.582Z,90483.09
2023-01-20T17:23:41.157Z,90466.34
2023-01-20T17:26:09.893Z,90464.34
2023-01-20T17:28:36.679Z,90469.84
2023-01-20T17:31:05.530Z,90476.50
2023-01-20T17:33:33.225Z,90476.50
2023-01-20T17:36:03.786Z,90485.28
2023-01-20T17:38:32.544Z,90485.75
2023-01-20T17:41:07.242Z,90467.88
2023-01-20T17:43:39.682Z,90469.03
2023-01-20T17:46:18.313Z,90469.03
2023-01-20T17:48:46.265Z,90464.19
2023-01-20T17:51:18.245Z,90473.63
2023-01-20T17:53:45.304Z,90485.56
2023-01-20T17:56:13.888Z,90497.41
2023-01-20T17:58:42.834Z,90502.94
2023-01-20T18:01:13.354Z,90497.19
2023-01-20T18:03:42.984Z,90497.47
2023-01-20T18:06:12.471Z,90500.75
2023-01-20T18:08:39.827Z,90510.75
2023-01-20T18:11:09.367Z,90533.03
2023-01-20T18:13:36.551Z,90521.50
2023-01-20T18:16:05.844Z,90528.00
2023-01-20T18:18:33.071Z,90517.97
2023-01-20T18:21:12.699Z,90523.50
2023-01-20T18:23:40.306Z,90522.81
2023-01-20T18:26:09.013Z,90530.19
2023-01-20T18:28:37.139Z,90519.16
2023-01-20T18:31:10.023Z,90532.09
2023-01-20T18:33:39.937Z,90532.59
2023-01-20T18:36:08.176Z,90532.53
2023-01-20T18:38:35.426Z,90537.03
2023-01-20T18:41:03.189Z,90543.72
2023-01-20T18:43:30.699Z,90547.66
2023-01-20T18:45:57.500Z,90552.31
2023-01-20T18:48:25.426Z,90565.50
2023-01-20T18:50:53.287Z,90572.59
2023-01-20T18:53:20.055Z,90574.09
2023-01-20T18:55:46.991Z,90585.03
2023-01-20T18:58:16.513Z,90579.69
2023-01-20T19:00:43.759Z,90593.16
2023-01-20T19:03:10.882Z,90575.59
2023-01-20T19:05:37.609Z,90604.88
2023-01-20T19:08:05.173Z,90605.94
2023-01-20T19:10:31.916Z,90597.41
2023-01-20T19:12:58.640Z,90625.84
2023-01-20T19:15:25.460Z,90639.09
2023-01-20T19:17:52.251Z,90635.72
2023-01-20T19:20:19.146Z,90650.81
2023-01-20T19:22:45.830Z,90649.56
2023-01-20T19:25:12.585Z,90664.34
2023-01-20T19:27:39.373Z,90661.59
2023-01-20T19:30:06.751Z,90671.75
2023-01-20T19:32:33.418Z,90639.97
2023-01-20T19:35:00.529Z,90671.09
2023-01-20T19:37:28.493Z,90677.75
2023-01-20T19:39:55.215Z,90677.84
2023-01-20T19:42:23.325Z,90690.06
2023-01-20T19:44:51.492Z,90682.16
2023-01-20T19:47:18.465Z,90685.72
2023-01-20T19:49:46.273Z,90697.66
2023-01-20T19:52:13.023Z,90689.81
2023-01-20T19:54:39.887Z,90696.69
2023-01-20T19:57:06.629Z,90699.53
2023-01-20T19:59:33.455Z,90695.88
2023-01-20T20:02:00.186Z,90695.72
2023-01-20T20:04:26.916Z,90683.09
2023-01-20T20:06:55.660Z,90695.91
2023-01-20T20:09:25.987Z,90699.59
2023-01-20T20:11:54.667Z,90697.97
2023-01-20T20:14:23.093Z,90703.44
2023-01-20T20:16:50.519Z,90703.63
2023-01-20T20:19:19.222Z,90713.88
2023-01-20T20:21:46.507Z,90730.34
2023-01-20T20:24:15.090Z,90726.34
2023-01-20T20:26:43.203Z,90716.84
2023-01-20T20:29:11.105Z,90717.84
2023-01-20T20:31:40.381Z,90724.59
2023-01-20T20:34:14.457Z,90728.22
2023-01-20T20:36:41.434Z,90751.47
2023-01-20T20:39:08.379Z,90743.19
2023-01-20T20:41:36.638Z,90752.69
2023-01-20T20:44:03.838Z,90747.25
2023-01-20T20:46:30.761Z,90753.09
2023-01-20T20:49:02.110Z,90768.81
2023-01-20T20:51:31.862Z,90760.63
2023-01-20T20:54:01.105Z,90758.00
2023-01-20T20:56:31.577Z,90733.75
2023-01-20T20:59:02.317Z,90767.19
2023-01-20T21:01:32.836Z,90776.47
2023-01-20T21:04:03.667Z,90784.78
2023-01-20T21:06:31.926Z,90787.16
2023-01-20T21:08:59.437Z,90798.47
2023-01-20T21:11:26.724Z,90788.94
2023-01-20T21:13:56.126Z,90802.75
2023-01-20T21:16:28.269Z,90792.56
2023-01-20T21:18:56.619Z,90800.38
2023-01-20T21:21:23.991Z,90804.47
2023-01-20T21:23:53.046Z,90803.81
2023-01-20T21:26:20.270Z,90806.63
2023-01-20T21:28:49.332Z,90815.22
2023-01-20T21:31:22.775Z,90826.78
2023-01-20T21:33:54.909Z,90819.97
2023-01-20T21:36:22.723Z,90821.03
2023-01-20T21:38:49.923Z,90800.78
2023-01-20T21:41:18.311Z,90828.75
2023-01-20T21:44:06.838Z,90817.75
2023-01-20T21:46:38.414Z,90823.59
2023-01-20T21:49:25.357Z,90841.06
2023-01-20T21:52:10.888Z,90841.69
2023-01-20T21:54:39.922Z,90850.84
2023-01-20T21:57:06.858Z,90861.00
2023-01-20T21:59:33.559Z,90831.47
2023-01-20T22:02:00.366Z,90853.75
2023-01-20T22:04:27.142Z,90853.88
2023-01-20T22:06:54.067Z,90847.59
2023-01-20T22:09:20.778Z,90861.38
2023-01-20T22:11:47.526Z,90868.50
2023-01-20T22:14:14.196Z,90868.94
2023-01-20T22:16:41.115Z,90860.72
2023-01-20T22:19:07.945Z,90869.75
2023-01-20T22:21:34.649Z,90852.72
2023-01-20T22:24:02.796Z,90860.97
2023-01-20T22:26:29.551Z,90866.59
2023-01-20T22:28:56.292Z,90873.41
2023-01-20T22:31:26.349Z,90871.78
2023-01-20T22:33:57.118Z,90870.53
2023-01-20T22:36:24.783Z,90880.66
2023-01-20T22:38:52.934Z,90885.78
2023-01-20T22:41:20.366Z,90890.72
2023-01-20T22:43:48.185Z,90885.28
2023-01-20T22:46:17.766Z,90872.13
2023-01-20T22:48:45.590Z,90895.78
2023-01-20T22:51:15.227Z,90885.69
2023-01-20T22:53:42.706Z,90890.06
2023-01-20T22:56:24.608Z,90887.84
2023-01-20T22:58:51.988Z,90886.56
2023-01-20T23:01:21.509Z,90894.56
2023-01-20T23:03:53.029Z,90893.47
2023-01-20T23:06:19.935Z,90889.41
2023-01-20T23:08:46.933Z,90857.22
2023-01-20T23:11:16.307Z,90893.78
2023-01-20T23:13:43.300Z,90893.41
2023-01-20T23:16:16.688Z,90896.25
2023-01-20T23:18:44.062Z,90889.09
2023-01-20T23:21:11.104Z,90894.88
2023-01-20T23:23:38.178Z,90902.78
2023-01-20T23:26:15.387Z,90894.75
2023-01-20T23:28:43.308Z,90871.75
2023-01-20T23:31:12.404Z,90877.41
2023-01-20T23:33:40.488Z,90900.31
2023-01-20T23:36:18.665Z,90894.44
2023-01-20T23:38:46.192Z,90884.00
2023-01-20T23:41:14.237Z,90879.94
2023-01-20T23:43:42.037Z,90892.25
2023-01-20T23:46:10.518Z,90895.84
2023-01-20T23:48:37.744Z,90892.44
2023-01-20T23:51:06.112Z,90886.94
2023-01-20T23:53:37.774Z,90888.56
2023-01-20T23:56:10.025Z,90884.94
2023-01-20T23:58:36.729Z,90882.69
